sensor_id;sensor_type;location;lat;lon;timestamp;pressure;altitude;pressure_sealevel;temperature;humidity
23253;BME280;11795;47.054;15.408;2023-02-28T00:00:00;98240;;;1.5;54.1
23253;BME280;11795;47.054;15.408;2023-02-28T00:02:00;98240;;;1.7;53.8
23253;BME280;11795;47.054;15.408;2023-02-28T00:04:00;98240;;;1.6;54.2
23253;BME280;11795;47.054;15.408;2023-02-28T00:06:01;98240;;;1.5;54.4
23253;BME280;11795;47.054;15.408;2023-02-28T00:08:00;98240;;;1.6;54.3
23253;BME280;11795;47.054;15.408;2023-02-28T00:10:00;98240;;;1.5;54.7
23253;BME280;11795;47.054;15.408;2023-02-28T00:12:03;98240;;;1.6;54.3
23253;BME280;11795;47.054;15.408;2023-02-28T00:14:00;98240;;;1.5;54.6
23253;BME280;11795;47.054;15.408;2023-02-28T00:16:01;98240;;;1.5;54.8
23253;BME280;11795;47.054;15.408;2023-02-28T00:18:00;98240;;;1.5;54.6
23253;BME280;11795;47.054;15.408;2023-02-28T00:20:11;98240;;;1.4;54.9
23253;BME280;11795;47.054;15.408;2023-02-28T00:22:00;98240;;;1.6;54.6
23253;BME280;11795;47.054;15.408;2023-02-28T00:24:00;98240;;;1.4;55.0
23253;BME280;11795;47.054;15.408;2023-02-28T00:26:00;98240;;;1.4;55.3
23253;BME280;11795;47.054;15.408;2023-02-28T00:28:00;98240;;;1.5;55.0
23253;BME280;11795;47.054;15.408;2023-02-28T00:30:01;98250;;;1.4;55.3
23253;BME280;11795;47.054;15.408;2023-02-28T00:32:01;98240;;;1.6;54.9
23253;BME280;11795;47.054;15.408;2023-02-28T00:34:00;98240;;;1.4;55.2
23253;BME280;11795;47.054;15.408;2023-02-28T00:36:02;98250;;;1.4;55.4
23253;BME280;11795;47.054;15.408;2023-02-28T00:38:00;98250;;;1.4;55.3
23253;BME280;11795;47.054;15.408;2023-02-28T00:40:00;98240;;;1.4;55.5
23253;BME280;11795;47.054;15.408;2023-02-28T00:42:00;98250;;;1.6;55.0
23253;BME280;11795;47.054;15.408;2023-02-28T00:44:00;98250;;;1.4;55.4
23253;BME280;11795;47.054;15.408;2023-02-28T00:46:00;98250;;;1.4;55.6
23253;BME280;11795;47.054;15.408;2023-02-28T00:48:00;98240;;;1.4;55.4
23253;BME280;11795;47.054;15.408;2023-02-28T00:50:00;98250;;;1.3;55.7
23253;BME280;11795;47.054;15.408;2023-02-28T00:52:00;98250;;;1.5;55.3
23253;BME280;11795;47.054;15.408;2023-02-28T00:54:00;98250;;;1.4;55.7
23253;BME280;11795;47.054;15.408;2023-02-28T00:56:01;98240;;;1.4;55.8
23253;BME280;11795;47.054;15.408;2023-02-28T00:58:00;98240;;;1.4;55.7
23253;BME280;11795;47.054;15.408;2023-02-28T01:00:00;98240;;;1.3;55.9
23253;BME280;11795;47.054;15.408;2023-02-28T01:02:00;98250;;;1.5;55.5
23253;BME280;11795;47.054;15.408;2023-02-28T01:04:00;98240;;;1.3;56.0
23253;BME280;11795;47.054;15.408;2023-02-28T01:06:00;98240;;;1.3;56.2
23253;BME280;11795;47.054;15.408;2023-02-28T01:08:00;98240;;;1.4;56.1
23253;BME280;11795;47.054;15.408;2023-02-28T01:10:00;98230;;;1.3;56.3
23253;BME280;11795;47.054;15.408;2023-02-28T01:12:00;98240;;;1.5;56.0
23253;BME280;11795;47.054;15.408;2023-02-28T01:14:01;98240;;;1.3;56.4
23253;BME280;11795;47.054;15.408;2023-02-28T01:16:00;98240;;;1.3;56.5
23253;BME280;11795;47.054;15.408;2023-02-28T01:18:00;98240;;;1.4;56.0
23253;BME280;11795;47.054;15.408;2023-02-28T01:20:00;98230;;;1.3;56.3
23253;BME280;11795;47.054;15.408;2023-02-28T01:22:01;98240;;;1.5;55.9
23253;BME280;11795;47.054;15.408;2023-02-28T01:24:00;98240;;;1.4;56.1
23253;BME280;11795;47.054;15.408;2023-02-28T01:26:03;98240;;;1.3;56.3
23253;BME280;11795;47.054;15.408;2023-02-28T01:28:00;98230;;;1.5;55.9
23253;BME280;11795;47.054;15.408;2023-02-28T01:30:00;98240;;;1.4;56.1
23253;BME280;11795;47.054;15.408;2023-02-28T01:32:00;98240;;;1.5;55.8
23253;BME280;11795;47.054;15.408;2023-02-28T01:34:00;98230;;;1.4;56.2
23253;BME280;11795;47.054;15.408;2023-02-28T01:36:02;98240;;;1.3;56.4
23253;BME280;11795;47.054;15.408;2023-02-28T01:38:00;98230;;;1.5;56.1
23253;BME280;11795;47.054;15.408;2023-02-28T01:40:00;98230;;;1.4;56.4
23253;BME280;11795;47.054;15.408;2023-02-28T01:42:00;98230;;;1.5;56.1
23253;BME280;11795;47.054;15.408;2023-02-28T01:44:05;98240;;;1.4;56.4
23253;BME280;11795;47.054;15.408;2023-02-28T01:46:00;98240;;;1.4;56.5
23253;BME280;11795;47.054;15.408;2023-02-28T01:48:03;98240;;;1.5;56.2
23253;BME280;11795;47.054;15.408;2023-02-28T01:50:02;98240;;;1.4;56.4
23253;BME280;11795;47.054;15.408;2023-02-28T01:52:00;98240;;;1.6;55.9
23253;BME280;11795;47.054;15.408;2023-02-28T01:54:03;98230;;;1.4;56.3
23253;BME280;11795;47.054;15.408;2023-02-28T01:56:04;98230;;;1.4;56.6
23253;BME280;11795;47.054;15.408;2023-02-28T01:58:04;98240;;;1.5;56.3
23253;BME280;11795;47.054;15.408;2023-02-28T02:00:03;98240;;;1.4;56.6
23253;BME280;11795;47.054;15.408;2023-02-28T02:02:01;98240;;;1.6;56.1
23253;BME280;11795;47.054;15.408;2023-02-28T02:04:02;98240;;;1.4;56.2
23253;BME280;11795;47.054;15.408;2023-02-28T02:06:02;98230;;;1.4;56.4
23253;BME280;11795;47.054;15.408;2023-02-28T02:08:04;98230;;;1.5;56.0
23253;BME280;11795;47.054;15.408;2023-02-28T02:10:02;98230;;;1.4;56.2
23253;BME280;11795;47.054;15.408;2023-02-28T02:12:08;98230;;;1.6;56.0
23253;BME280;11795;47.054;15.408;2023-02-28T02:14:13;98240;;;1.5;56.0
23253;BME280;11795;47.054;15.408;2023-02-28T02:16:07;98240;;;1.4;56.2
23253;BME280;11795;47.054;15.408;2023-02-28T02:18:04;98240;;;1.6;55.8
23253;BME280;11795;47.054;15.408;2023-02-28T02:20:16;98240;;;1.4;56.1
23253;BME280;11795;47.054;15.408;2023-02-28T02:24:14;98230;;;1.5;55.9
23253;BME280;11795;47.054;15.408;2023-02-28T02:28:17;98240;;;1.5;56.2
23253;BME280;11795;47.054;15.408;2023-02-28T02:30:16;98230;;;1.3;56.8
23253;BME280;11795;47.054;15.408;2023-02-28T02:32:14;98240;;;1.5;56.9
23253;BME280;11795;47.054;15.408;2023-02-28T02:36:04;98230;;;1.3;57.8
23253;BME280;11795;47.054;15.408;2023-02-28T02:38:07;98230;;;1.4;57.7
23253;BME280;11795;47.054;15.408;2023-02-28T02:40:05;98230;;;1.3;58.2
23253;BME280;11795;47.054;15.408;2023-02-28T02:42:01;98230;;;1.5;58.1
23253;BME280;11795;47.054;15.408;2023-02-28T02:44:02;98230;;;1.4;58.4
23253;BME280;11795;47.054;15.408;2023-02-28T02:46:05;98230;;;1.3;59.3
23253;BME280;11795;47.054;15.408;2023-02-28T02:48:01;98230;;;1.4;59.4
23253;BME280;11795;47.054;15.408;2023-02-28T02:50:04;98230;;;1.4;59.6
23253;BME280;11795;47.054;15.408;2023-02-28T02:52:04;98230;;;1.4;59.8
23253;BME280;11795;47.054;15.408;2023-02-28T02:54:04;98230;;;1.3;60.0
23253;BME280;11795;47.054;15.408;2023-02-28T02:56:01;98230;;;1.2;60.3
23253;BME280;11795;47.054;15.408;2023-02-28T02:58:03;98230;;;1.2;60.4
23253;BME280;11795;47.054;15.408;2023-02-28T03:00:02;98240;;;1.1;60.7
23253;BME280;11795;47.054;15.408;2023-02-28T03:02:04;98240;;;1.3;60.4
23253;BME280;11795;47.054;15.408;2023-02-28T03:04:03;98240;;;1.2;60.5
23253;BME280;11795;47.054;15.408;2023-02-28T03:06:01;98240;;;1.1;60.8
23253;BME280;11795;47.054;15.408;2023-02-28T03:08:03;98240;;;1.3;60.3
23253;BME280;11795;47.054;15.408;2023-02-28T03:10:01;98240;;;1.2;60.6
23253;BME280;11795;47.054;15.408;2023-02-28T03:12:00;98240;;;1.4;60.4
23253;BME280;11795;47.054;15.408;2023-02-28T03:14:10;98240;;;1.3;60.4
23253;BME280;11795;47.054;15.408;2023-02-28T03:16:13;98240;;;1.2;60.6
23253;BME280;11795;47.054;15.408;2023-02-28T03:18:04;98240;;;1.4;60.3
23253;BME280;11795;47.054;15.408;2023-02-28T03:20:04;98240;;;1.2;60.8
23253;BME280;11795;47.054;15.408;2023-02-28T03:22:14;98240;;;1.4;60.6
23253;BME280;11795;47.054;15.408;2023-02-28T03:24:04;98240;;;1.2;60.8
23253;BME280;11795;47.054;15.408;2023-02-28T03:26:04;98240;;;1.1;61.4
23253;BME280;11795;47.054;15.408;2023-02-28T03:28:05;98240;;;1.3;60.8
23253;BME280;11795;47.054;15.408;2023-02-28T03:30:03;98240;;;1.2;61.2
23253;BME280;11795;47.054;15.408;2023-02-28T03:32:04;98240;;;1.3;61.2
23253;BME280;11795;47.054;15.408;2023-02-28T03:34:03;98240;;;1.2;61.2
23253;BME280;11795;47.054;15.408;2023-02-28T03:36:04;98240;;;1.1;61.6
23253;BME280;11795;47.054;15.408;2023-02-28T03:38:09;98240;;;1.3;61.4
23253;BME280;11795;47.054;15.408;2023-02-28T03:40:03;98240;;;1.2;61.7
23253;BME280;11795;47.054;15.408;2023-02-28T03:42:02;98250;;;1.3;61.5
23253;BME280;11795;47.054;15.408;2023-02-28T03:44:05;98250;;;1.3;61.5
23253;BME280;11795;47.054;15.408;2023-02-28T03:46:04;98250;;;1.2;61.7
23253;BME280;11795;47.054;15.408;2023-02-28T03:48:02;98250;;;1.4;61.3
23253;BME280;11795;47.054;15.408;2023-02-28T03:50:04;98250;;;1.2;61.6
23253;BME280;11795;47.054;15.408;2023-02-28T03:52:02;98250;;;1.4;61.6
23253;BME280;11795;47.054;15.408;2023-02-28T03:54:04;98250;;;1.3;61.6
23253;BME280;11795;47.054;15.408;2023-02-28T03:56:05;98250;;;1.2;62.0
23253;BME280;11795;47.054;15.408;2023-02-28T03:58:04;98250;;;1.4;61.3
23253;BME280;11795;47.054;15.408;2023-02-28T04:00:04;98250;;;1.2;61.8
23253;BME280;11795;47.054;15.408;2023-02-28T04:02:00;98250;;;1.3;61.7
23253;BME280;11795;47.054;15.408;2023-02-28T04:04:01;98250;;;1.2;61.8
23253;BME280;11795;47.054;15.408;2023-02-28T04:06:00;98250;;;1.2;62.0
23253;BME280;11795;47.054;15.408;2023-02-28T04:08:04;98250;;;1.3;61.5
23253;BME280;11795;47.054;15.408;2023-02-28T04:10:00;98250;;;1.2;61.8
23253;BME280;11795;47.054;15.408;2023-02-28T04:12:00;98250;;;1.4;61.7
23253;BME280;11795;47.054;15.408;2023-02-28T04:14:00;98250;;;1.3;61.6
23253;BME280;11795;47.054;15.408;2023-02-28T04:16:00;98250;;;1.2;61.9
23253;BME280;11795;47.054;15.408;2023-02-28T04:18:00;98260;;;1.4;61.3
23253;BME280;11795;47.054;15.408;2023-02-28T04:20:00;98260;;;1.3;61.3
23253;BME280;11795;47.054;15.408;2023-02-28T04:22:00;98260;;;1.4;61.4
23253;BME280;11795;47.054;15.408;2023-02-28T04:24:01;98260;;;1.3;61.2
23253;BME280;11795;47.054;15.408;2023-02-28T04:26:00;98260;;;1.2;61.6
23253;BME280;11795;47.054;15.408;2023-02-28T04:28:00;98260;;;1.4;61.2
23253;BME280;11795;47.054;15.408;2023-02-28T04:30:00;98270;;;1.2;61.4
23253;BME280;11795;47.054;15.408;2023-02-28T04:32:01;98270;;;1.4;61.3
23253;BME280;11795;47.054;15.408;2023-02-28T04:34:00;98270;;;1.3;61.1
23253;BME280;11795;47.054;15.408;2023-02-28T04:36:02;98270;;;1.2;61.3
23253;BME280;11795;47.054;15.408;2023-02-28T04:38:01;98270;;;1.3;61.0
23253;BME280;11795;47.054;15.408;2023-02-28T04:40:00;98280;;;1.2;61.2
23253;BME280;11795;47.054;15.408;2023-02-28T04:42:00;98280;;;1.4;61.0
23253;BME280;11795;47.054;15.408;2023-02-28T04:44:00;98280;;;1.3;60.5
23253;BME280;11795;47.054;15.408;2023-02-28T04:46:02;98280;;;1.2;60.5
23253;BME280;11795;47.054;15.408;2023-02-28T04:48:00;98270;;;1.3;59.1
23253;BME280;11795;47.054;15.408;2023-02-28T04:50:00;98280;;;1.1;59.4
23253;BME280;11795;47.054;15.408;2023-02-28T04:52:00;98280;;;1.3;59.3
23253;BME280;11795;47.054;15.408;2023-02-28T04:54:00;98280;;;1.2;58.9
23253;BME280;11795;47.054;15.408;2023-02-28T04:56:00;98280;;;1.1;59.0
23253;BME280;11795;47.054;15.408;2023-02-28T04:58:00;98280;;;1.3;58.6
23253;BME280;11795;47.054;15.408;2023-02-28T05:00:00;98280;;;1.1;59.0
23253;BME280;11795;47.054;15.408;2023-02-28T05:02:00;98280;;;1.3;58.8
23253;BME280;11795;47.054;15.408;2023-02-28T05:04:03;98270;;;1.3;58.5
23253;BME280;11795;47.054;15.408;2023-02-28T05:06:00;98280;;;1.2;58.7
23253;BME280;11795;47.054;15.408;2023-02-28T05:08:00;98280;;;1.2;58.6
23253;BME280;11795;47.054;15.408;2023-02-28T05:10:00;98280;;;1.1;58.9
23253;BME280;11795;47.054;15.408;2023-02-28T05:12:00;98270;;;1.2;58.8
23253;BME280;11795;47.054;15.408;2023-02-28T05:14:01;98270;;;1.2;58.8
23253;BME280;11795;47.054;15.408;2023-02-28T05:16:00;98270;;;1.1;59.0
23253;BME280;11795;47.054;15.408;2023-02-28T05:18:00;98270;;;1.3;58.6
23253;BME280;11795;47.054;15.408;2023-02-28T05:20:00;98270;;;1.1;58.6
23253;BME280;11795;47.054;15.408;2023-02-28T05:22:00;98270;;;1.3;58.6
23253;BME280;11795;47.054;15.408;2023-02-28T05:24:02;98270;;;1.2;58.4
23253;BME280;11795;47.054;15.408;2023-02-28T05:26:00;98270;;;1.1;58.8
23253;BME280;11795;47.054;15.408;2023-02-28T05:28:00;98270;;;1.3;58.4
23253;BME280;11795;47.054;15.408;2023-02-28T05:30:04;98280;;;1.1;58.8
23253;BME280;11795;47.054;15.408;2023-02-28T05:32:00;98280;;;1.1;58.9
23253;BME280;11795;47.054;15.408;2023-02-28T05:34:00;98280;;;1.1;58.8
23253;BME280;11795;47.054;15.408;2023-02-28T05:36:00;98280;;;1.1;59.1
23253;BME280;11795;47.054;15.408;2023-02-28T05:38:00;98280;;;1.3;58.7
23253;BME280;11795;47.054;15.408;2023-02-28T05:40:00;98280;;;1.2;58.9
23253;BME280;11795;47.054;15.408;2023-02-28T05:42:00;98280;;;1.4;58.6
23253;BME280;11795;47.054;15.408;2023-02-28T05:44:00;98290;;;1.2;58.5
23253;BME280;11795;47.054;15.408;2023-02-28T05:46:02;98290;;;1.1;58.9
23253;BME280;11795;47.054;15.408;2023-02-28T05:48:00;98290;;;1.3;58.5
23253;BME280;11795;47.054;15.408;2023-02-28T05:50:01;98290;;;1.2;58.9
23253;BME280;11795;47.054;15.408;2023-02-28T05:52:00;98290;;;1.3;58.9
23253;BME280;11795;47.054;15.408;2023-02-28T05:54:01;98300;;;1.3;58.7
23253;BME280;11795;47.054;15.408;2023-02-28T05:56:00;98300;;;1.2;59.0
23253;BME280;11795;47.054;15.408;2023-02-28T05:58:00;98300;;;1.4;58.6
23253;BME280;11795;47.054;15.408;2023-02-28T06:00:01;98300;;;1.1;59.3
23253;BME280;11795;47.054;15.408;2023-02-28T06:02:00;98300;;;1.3;59.1
23253;BME280;11795;47.054;15.408;2023-02-28T06:04:02;98300;;;1.3;58.9
23253;BME280;11795;47.054;15.408;2023-02-28T06:06:00;98310;;;1.2;59.2
23253;BME280;11795;47.054;15.408;2023-02-28T06:08:00;98310;;;1.3;58.9
23253;BME280;11795;47.054;15.408;2023-02-28T06:10:01;98310;;;1.2;59.0
23253;BME280;11795;47.054;15.408;2023-02-28T06:12:02;98310;;;1.3;59.2
23253;BME280;11795;47.054;15.408;2023-02-28T06:14:01;98320;;;1.2;59.2
23253;BME280;11795;47.054;15.408;2023-02-28T06:16:00;98320;;;1.1;59.4
23253;BME280;11795;47.054;15.408;2023-02-28T06:18:00;98320;;;1.3;59.2
23253;BME280;11795;47.054;15.408;2023-02-28T06:20:00;98320;;;1.1;59.5
23253;BME280;11795;47.054;15.408;2023-02-28T06:22:00;98320;;;1.3;59.3
23253;BME280;11795;47.054;15.408;2023-02-28T06:24:01;98320;;;1.3;59.0
23253;BME280;11795;47.054;15.408;2023-02-28T06:26:00;98330;;;1.3;59.0
23253;BME280;11795;47.054;15.408;2023-02-28T06:28:00;98330;;;1.4;58.8
23253;BME280;11795;47.054;15.408;2023-02-28T06:30:00;98340;;;1.3;59.2
23253;BME280;11795;47.054;15.408;2023-02-28T06:32:00;98330;;;1.4;59.3
23253;BME280;11795;47.054;15.408;2023-02-28T06:34:00;98340;;;1.4;59.1
23253;BME280;11795;47.054;15.408;2023-02-28T06:36:00;98340;;;1.3;59.1
23253;BME280;11795;47.054;15.408;2023-02-28T06:38:00;98340;;;1.4;58.8
23253;BME280;11795;47.054;15.408;2023-02-28T06:40:00;98340;;;1.3;58.9
23253;BME280;11795;47.054;15.408;2023-02-28T06:42:00;98340;;;1.3;59.4
23253;BME280;11795;47.054;15.408;2023-02-28T06:44:00;98340;;;1.4;59.2
23253;BME280;11795;47.054;15.408;2023-02-28T06:46:02;98350;;;1.3;59.4
23253;BME280;11795;47.054;15.408;2023-02-28T06:48:00;98350;;;1.5;59.0
23253;BME280;11795;47.054;15.408;2023-02-28T06:50:01;98360;;;1.3;59.6
23253;BME280;11795;47.054;15.408;2023-02-28T06:52:01;98360;;;1.4;59.7
23253;BME280;11795;47.054;15.408;2023-02-28T06:54:00;98350;;;1.4;59.5
23253;BME280;11795;47.054;15.408;2023-02-28T06:56:03;98360;;;1.3;59.7
23253;BME280;11795;47.054;15.408;2023-02-28T06:58:00;98360;;;1.5;59.1
23253;BME280;11795;47.054;15.408;2023-02-28T07:00:04;98360;;;1.4;59.4
23253;BME280;11795;47.054;15.408;2023-02-28T07:02:02;98360;;;1.5;59.5
23253;BME280;11795;47.054;15.408;2023-02-28T07:04:00;98360;;;1.5;59.4
23253;BME280;11795;47.054;15.408;2023-02-28T07:06:01;98360;;;1.4;59.7
23253;BME280;11795;47.054;15.408;2023-02-28T07:08:01;98360;;;1.6;59.1
23253;BME280;11795;47.054;15.408;2023-02-28T07:10:00;98360;;;1.5;59.3
23253;BME280;11795;47.054;15.408;2023-02-28T07:12:00;98360;;;1.6;59.3
23253;BME280;11795;47.054;15.408;2023-02-28T07:14:00;98360;;;1.5;59.2
23253;BME280;11795;47.054;15.408;2023-02-28T07:16:03;98360;;;1.5;59.3
23253;BME280;11795;47.054;15.408;2023-02-28T07:18:00;98370;;;1.6;59.0
23253;BME280;11795;47.054;15.408;2023-02-28T07:20:00;98360;;;1.5;59.2
23253;BME280;11795;47.054;15.408;2023-02-28T07:22:01;98360;;;1.5;59.4
23253;BME280;11795;47.054;15.408;2023-02-28T07:24:00;98370;;;1.5;59.5
23253;BME280;11795;47.054;15.408;2023-02-28T07:26:00;98370;;;1.4;59.5
23253;BME280;11795;47.054;15.408;2023-02-28T07:28:00;98370;;;1.6;59.2
23253;BME280;11795;47.054;15.408;2023-02-28T07:30:02;98370;;;1.5;59.6
23253;BME280;11795;47.054;15.408;2023-02-28T07:32:00;98370;;;1.6;59.5
23253;BME280;11795;47.054;15.408;2023-02-28T07:34:00;98370;;;1.6;59.3
23253;BME280;11795;47.054;15.408;2023-02-28T07:36:01;98370;;;1.6;59.6
23253;BME280;11795;47.054;15.408;2023-02-28T07:38:00;98370;;;1.7;59.3
23253;BME280;11795;47.054;15.408;2023-02-28T07:40:01;98380;;;1.6;59.7
23253;BME280;11795;47.054;15.408;2023-02-28T07:42:04;98380;;;1.7;59.6
23253;BME280;11795;47.054;15.408;2023-02-28T07:44:00;98380;;;1.8;59.1
23253;BME280;11795;47.054;15.408;2023-02-28T07:46:02;98380;;;1.7;59.5
23253;BME280;11795;47.054;15.408;2023-02-28T07:48:00;98380;;;1.9;59.0
23253;BME280;11795;47.054;15.408;2023-02-28T07:50:00;98390;;;1.8;59.3
23253;BME280;11795;47.054;15.408;2023-02-28T07:52:00;98380;;;1.8;59.3
23253;BME280;11795;47.054;15.408;2023-02-28T07:54:00;98390;;;1.8;59.1
23253;BME280;11795;47.054;15.408;2023-02-28T07:56:02;98390;;;1.7;59.4
23253;BME280;11795;47.054;15.408;2023-02-28T07:58:00;98390;;;1.9;59.0
23253;BME280;11795;47.054;15.408;2023-02-28T08:00:00;98390;;;1.7;59.5
23253;BME280;11795;47.054;15.408;2023-02-28T08:02:00;98380;;;1.8;59.6
23253;BME280;11795;47.054;15.408;2023-02-28T08:04:00;98390;;;1.8;59.4
23253;BME280;11795;47.054;15.408;2023-02-28T08:06:00;98390;;;1.8;59.6
23253;BME280;11795;47.054;15.408;2023-02-28T08:08:00;98390;;;2.0;59.2
23253;BME280;11795;47.054;15.408;2023-02-28T08:10:00;98390;;;1.9;59.4
23253;BME280;11795;47.054;15.408;2023-02-28T08:12:00;98390;;;1.9;59.4
23253;BME280;11795;47.054;15.408;2023-02-28T08:14:00;98390;;;2.0;59.0
23253;BME280;11795;47.054;15.408;2023-02-28T08:16:01;98390;;;1.9;59.3
23253;BME280;11795;47.054;15.408;2023-02-28T08:18:00;98390;;;2.0;58.5
23253;BME280;11795;47.054;15.408;2023-02-28T08:20:00;98400;;;1.9;59.0
23253;BME280;11795;47.054;15.408;2023-02-28T08:22:00;98390;;;2.0;58.8
23253;BME280;11795;47.054;15.408;2023-02-28T08:24:00;98390;;;2.0;58.8
23253;BME280;11795;47.054;15.408;2023-02-28T08:26:01;98390;;;1.9;59.3
23253;BME280;11795;47.054;15.408;2023-02-28T08:28:00;98390;;;2.1;58.5
23253;BME280;11795;47.054;15.408;2023-02-28T08:30:00;98390;;;2.0;58.8
23253;BME280;11795;47.054;15.408;2023-02-28T08:32:00;98400;;;2.0;59.1
23253;BME280;11795;47.054;15.408;2023-02-28T08:34:05;98400;;;2.0;58.9
23253;BME280;11795;47.054;15.408;2023-02-28T08:36:00;98400;;;1.8;59.4
23253;BME280;11795;47.054;15.408;2023-02-28T08:38:00;98400;;;1.9;58.8
23253;BME280;11795;47.054;15.408;2023-02-28T08:40:00;98400;;;1.9;59.1
23253;BME280;11795;47.054;15.408;2023-02-28T08:42:00;98400;;;1.9;59.1
23253;BME280;11795;47.054;15.408;2023-02-28T08:44:00;98400;;;2.0;58.9
23253;BME280;11795;47.054;15.408;2023-02-28T08:46:00;98400;;;2.0;59.0
23253;BME280;11795;47.054;15.408;2023-02-28T08:48:00;98390;;;2.2;58.5
23253;BME280;11795;47.054;15.408;2023-02-28T08:50:00;98390;;;2.1;58.9
23253;BME280;11795;47.054;15.408;2023-02-28T08:52:00;98400;;;2.2;58.9
23253;BME280;11795;47.054;15.408;2023-02-28T08:54:00;98390;;;2.3;58.7
23253;BME280;11795;47.054;15.408;2023-02-28T08:56:03;98400;;;2.2;58.8
23253;BME280;11795;47.054;15.408;2023-02-28T08:58:01;98390;;;2.5;58.1
23253;BME280;11795;47.054;15.408;2023-02-28T09:00:02;98400;;;2.4;58.4
23253;BME280;11795;47.054;15.408;2023-02-28T09:02:00;98400;;;2.4;58.5
23253;BME280;11795;47.054;15.408;2023-02-28T09:04:02;98400;;;2.5;58.0
23253;BME280;11795;47.054;15.408;2023-02-28T09:06:01;98400;;;2.5;57.6
23253;BME280;11795;47.054;15.408;2023-02-28T09:08:00;98400;;;2.6;57.6
23253;BME280;11795;47.054;15.408;2023-02-28T09:10:00;98400;;;2.5;57.9
23253;BME280;11795;47.054;15.408;2023-02-28T09:12:00;98400;;;2.5;58.1
23253;BME280;11795;47.054;15.408;2023-02-28T09:14:01;98400;;;2.6;57.6
23253;BME280;11795;47.054;15.408;2023-02-28T09:16:02;98400;;;2.5;57.6
23253;BME280;11795;47.054;15.408;2023-02-28T09:18:00;98400;;;2.7;57.4
23253;BME280;11795;47.054;15.408;2023-02-28T09:20:00;98400;;;2.5;57.9
23253;BME280;11795;47.054;15.408;2023-02-28T09:22:00;98400;;;2.6;57.8
23253;BME280;11795;47.054;15.408;2023-02-28T09:24:00;98400;;;2.7;57.6
23253;BME280;11795;47.054;15.408;2023-02-28T09:26:00;98400;;;2.7;57.7
23253;BME280;11795;47.054;15.408;2023-02-28T09:28:00;98400;;;2.8;56.8
23253;BME280;11795;47.054;15.408;2023-02-28T09:30:00;98410;;;2.6;57.5
23253;BME280;11795;47.054;15.408;2023-02-28T09:32:01;98400;;;2.7;57.4
23253;BME280;11795;47.054;15.408;2023-02-28T09:34:01;98400;;;2.7;57.0
23253;BME280;11795;47.054;15.408;2023-02-28T09:36:02;98410;;;2.7;57.5
23253;BME280;11795;47.054;15.408;2023-02-28T09:38:03;98410;;;2.8;57.0
23253;BME280;11795;47.054;15.408;2023-02-28T09:40:00;98410;;;2.6;57.3
23253;BME280;11795;47.054;15.408;2023-02-28T09:42:02;98410;;;2.6;57.7
23253;BME280;11795;47.054;15.408;2023-02-28T09:44:02;98410;;;2.7;57.2
23253;BME280;11795;47.054;15.408;2023-02-28T09:46:06;98410;;;2.7;57.0
23253;BME280;11795;47.054;15.408;2023-02-28T09:48:04;98400;;;2.9;56.8
23253;BME280;11795;47.054;15.408;2023-02-28T09:50:11;98400;;;2.8;57.1
23253;BME280;11795;47.054;15.408;2023-02-28T09:52:02;98400;;;2.8;57.1
23253;BME280;11795;47.054;15.408;2023-02-28T09:54:00;98400;;;2.9;56.9
23253;BME280;11795;47.054;15.408;2023-02-28T09:56:02;98400;;;2.9;56.7
23253;BME280;11795;47.054;15.408;2023-02-28T09:58:00;98400;;;3.0;56.4
23253;BME280;11795;47.054;15.408;2023-02-28T10:00:07;98400;;;2.9;56.5
23253;BME280;11795;47.054;15.408;2023-02-28T10:02:07;98400;;;2.9;56.8
23253;BME280;11795;47.054;15.408;2023-02-28T10:04:03;98400;;;3.0;56.5
23253;BME280;11795;47.054;15.408;2023-02-28T10:06:08;98400;;;3.1;55.9
23253;BME280;11795;47.054;15.408;2023-02-28T10:08:08;98400;;;3.2;55.7
23253;BME280;11795;47.054;15.408;2023-02-28T10:10:04;98400;;;3.0;55.9
23253;BME280;11795;47.054;15.408;2023-02-28T10:12:03;98400;;;3.0;56.1
23253;BME280;11795;47.054;15.408;2023-02-28T10:14:04;98400;;;3.0;56.5
23253;BME280;11795;47.054;15.408;2023-02-28T10:16:03;98400;;;3.0;56.1
23253;BME280;11795;47.054;15.408;2023-02-28T10:18:03;98400;;;3.1;56.1
23253;BME280;11795;47.054;15.408;2023-02-28T10:20:06;98400;;;3.0;56.5
23253;BME280;11795;47.054;15.408;2023-02-28T10:22:03;98400;;;3.1;56.7
23253;BME280;11795;47.054;15.408;2023-02-28T10:24:07;98390;;;3.3;56.1
23253;BME280;11795;47.054;15.408;2023-02-28T10:26:10;98390;;;3.3;56.1
23253;BME280;11795;47.054;15.408;2023-02-28T10:28:09;98390;;;3.5;56.1
23253;BME280;11795;47.054;15.408;2023-02-28T10:30:02;98400;;;3.5;55.7
23253;BME280;11795;47.054;15.408;2023-02-28T10:32:02;98390;;;3.6;55.2
23253;BME280;11795;47.054;15.408;2023-02-28T10:34:01;98390;;;3.6;55.0
23253;BME280;11795;47.054;15.408;2023-02-28T10:36:02;98390;;;3.6;54.9
23253;BME280;11795;47.054;15.408;2023-02-28T10:38:05;98390;;;3.7;55.2
23253;BME280;11795;47.054;15.408;2023-02-28T10:40:00;98380;;;3.5;54.5
23253;BME280;11795;47.054;15.408;2023-02-28T10:42:00;98380;;;3.6;55.1
23253;BME280;11795;47.054;15.408;2023-02-28T10:44:12;98380;;;3.7;55.1
23253;BME280;11795;47.054;15.408;2023-02-28T10:46:03;98380;;;3.7;55.0
23253;BME280;11795;47.054;15.408;2023-02-28T10:48:03;98380;;;3.9;54.2
23253;BME280;11795;47.054;15.408;2023-02-28T10:50:01;98380;;;3.8;54.6
23253;BME280;11795;47.054;15.408;2023-02-28T10:52:00;98380;;;3.9;54.9
23253;BME280;11795;47.054;15.408;2023-02-28T10:54:00;98370;;;3.9;54.3
23253;BME280;11795;47.054;15.408;2023-02-28T10:56:03;98380;;;4.0;54.2
23253;BME280;11795;47.054;15.408;2023-02-28T10:58:00;98370;;;4.2;54.1
23253;BME280;11795;47.054;15.408;2023-02-28T11:00:13;98380;;;4.2;53.7
23253;BME280;11795;47.054;15.408;2023-02-28T11:02:01;98370;;;4.2;53.2
23253;BME280;11795;47.054;15.408;2023-02-28T11:04:01;98370;;;4.2;53.5
23253;BME280;11795;47.054;15.408;2023-02-28T11:06:06;98370;;;4.2;54.0
23253;BME280;11795;47.054;15.408;2023-02-28T11:08:05;98370;;;4.3;53.6
23253;BME280;11795;47.054;15.408;2023-02-28T11:10:00;98370;;;4.2;53.6
23253;BME280;11795;47.054;15.408;2023-02-28T11:12:01;98370;;;4.2;53.9
23253;BME280;11795;47.054;15.408;2023-02-28T11:14:04;98360;;;4.4;53.7
23253;BME280;11795;47.054;15.408;2023-02-28T11:16:03;98360;;;4.4;53.8
23253;BME280;11795;47.054;15.408;2023-02-28T11:18:14;98360;;;4.6;53.3
23253;BME280;11795;47.054;15.408;2023-02-28T11:20:05;98350;;;4.6;52.9
23253;BME280;11795;47.054;15.408;2023-02-28T11:22:02;98360;;;4.5;52.7
23253;BME280;11795;47.054;15.408;2023-02-28T11:24:03;98350;;;4.6;52.4
23253;BME280;11795;47.054;15.408;2023-02-28T11:26:02;98340;;;4.5;52.4